Time;durP1;ratioP1;P1;durP2;ratioP2;P2;SDS_P1;SDS_P2;PMS_P1;PMS_P2;Temp;Humidity;BMP_temperature;BMP_pressure;BME280_temperature;BME280_humidity;BME280_pressure;Samples;Min_cycle;Max_cycle;Signal;HPM_P1;HPM_P2
2024/01/12 00:00:47;;;;;;;57.80;30.92;;;;;;;;;;5052816;28;20103;-50
2024/01/12 00:03:13;;;;;;;55.65;27.88;;;0.70;98.70;;;;;;5034031;28;20044;-50
2024/01/12 00:05:39;;;;;;;54.63;29.52;;;0.80;98.90;;;;;;5013425;28;20037;-50
2024/01/12 00:08:04;;;;;;;53.20;29.48;;;0.70;99.20;;;;;;5030353;28;20533;-50
2024/01/12 00:10:31;;;;;;;57.65;30.48;;;0.80;99.50;;;;;;5030060;28;20038;-51
2024/01/12 00:12:57;;;;;;;68.35;35.05;;;0.90;99.30;;;;;;5030193;28;20049;-51
2024/01/12 00:15:23;;;;;;;58.28;31.25;;;1.00;99.30;;;;;;4997105;28;20045;-50
2024/01/12 00:17:48;;;;;;;55.67;29.27;;;1.00;99.10;;;;;;5030089;28;20032;-50
2024/01/12 00:20:14;;;;;;;62.45;32.42;;;;;;;;;;5029850;28;20041;-50
2024/01/12 00:22:40;;;;;;;72.35;39.13;;;1.10;99.00;;;;;;4997192;28;20046;-51
2024/01/12 00:25:06;;;;;;;79.35;43.10;;;1.00;99.50;;;;;;5029896;28;20111;-50
2024/01/12 00:27:32;;;;;;;78.95;40.28;;;1.00;99.40;;;;;;5013076;28;20052;-51
2024/01/12 00:29:58;;;;;;;83.15;43.22;;;0.90;99.50;;;;;;5029889;28;20811;-50
2024/01/12 00:32:24;;;;;;;75.50;39.95;;;1.00;99.60;;;;;;5029391;28;20045;-50
2024/01/12 00:34:49;;;;;;;74.43;38.42;;;1.00;99.40;;;;;;5029763;28;20040;-50
2024/01/12 00:37:15;;;;;;;71.65;36.22;;;1.00;99.30;;;;;;5046477;28;20048;-51
2024/01/12 00:39:41;;;;;;;67.22;33.55;;;0.90;99.20;;;;;;5052278;28;20067;-50
2024/01/12 00:42:07;;;;;;;69.68;34.72;;;;;;;;;;5052052;28;20074;-50
2024/01/12 00:44:32;;;;;;;67.65;35.38;;;0.70;99.90;;;;;;5051961;28;20115;-50
2024/01/12 00:46:58;;;;;;;67.95;36.42;;;0.70;99.90;;;;;;5052216;28;20040;-50
2024/01/12 00:49:24;;;;;;;75.00;34.60;;;0.80;99.90;;;;;;5051712;28;20029;-50
2024/01/12 00:51:50;;;;;;;68.97;34.45;;;0.70;99.50;;;;;;5051861;28;20129;-51
2024/01/12 00:54:16;;;;;;;63.75;32.55;;;;;;;;;;5052292;28;20025;-50
2024/01/12 00:56:42;;;;;;;70.03;35.47;;;-0.20;99.90;;;;;;5051671;28;20522;-50
2024/01/12 00:59:08;;;;;;;64.55;34.53;;;-0.20;99.90;;;;;;5051424;28;20064;-50
2024/01/12 01:01:34;;;;;;;65.95;36.20;;;-0.30;99.90;;;;;;5051891;28;20037;-49
2024/01/12 01:04:01;;;;;;;67.25;32.38;;;-0.50;99.90;;;;;;5051706;28;20025;-50
2024/01/12 01:06:27;;;;;;;66.22;33.10;;;-0.60;99.90;;;;;;5046399;28;20037;-50
2024/01/12 01:08:54;;;;;;;63.90;30.73;;;-0.70;99.90;;;;;;5051548;28;20040;-50
2024/01/12 01:11:20;;;;;;;65.93;32.13;;;-0.80;99.90;;;;;;5051712;28;20071;-50
2024/01/12 01:13:46;;;;;;;67.38;33.17;;;-0.90;99.90;;;;;;5051337;28;20147;-51
2024/01/12 01:16:11;;;;;;;71.05;35.47;;;-0.70;99.90;;;;;;5032397;28;20124;-50
2024/01/12 01:18:38;;;;;;;71.47;37.03;;;;;;;;;;5051330;28;20561;-50
2024/01/12 01:21:04;;;;;;;75.07;34.75;;;;;;;;;;5051545;28;20029;-49
2024/01/12 01:23:29;;;;;;;69.93;34.58;;;-0.60;99.90;;;;;;5051306;28;20027;-50
2024/01/12 01:25:55;;;;;;;66.03;35.90;;;-0.70;99.90;;;;;;5051181;28;20037;-50
2024/01/12 01:28:21;;;;;;;76.32;37.35;;;-0.60;99.90;;;;;;5051229;28;20025;-51
2024/01/12 01:30:48;;;;;;;70.72;36.92;;;-0.50;99.90;;;;;;5051047;28;20040;-51
2024/01/12 01:33:13;;;;;;;72.35;37.95;;;-0.60;99.90;;;;;;5032287;28;20060;-50
2024/01/12 01:35:39;;;;;;;65.05;32.50;;;-0.50;99.90;;;;;;5051126;28;20067;-50
2024/01/12 01:38:05;;;;;;;65.72;31.52;;;-0.50;99.90;;;;;;5051100;28;20021;-50
2024/01/12 01:40:31;;;;;;;68.43;34.08;;;-0.50;99.90;;;;;;5032032;28;20029;-50
2024/01/12 01:43:06;;;;;;;68.85;34.17;;;-0.50;99.90;;;;;;5050975;28;20986;-50
2024/01/12 01:45:34;;;;;;;73.38;34.00;;;;;;;;;;5050410;28;20083;-50
2024/01/12 01:48:00;;;;;;;69.80;34.47;;;-0.50;99.90;;;;;;5050967;28;20039;-49
2024/01/12 01:50:26;;;;;;;62.20;32.17;;;;;;;;;;5050972;28;20490;-50
2024/01/12 01:52:52;;;;;;;68.28;32.42;;;-0.40;99.90;;;;;;5031836;28;20452;-50
2024/01/12 01:55:19;;;;;;;71.95;34.33;;;;;;;;;;5050760;28;20061;-49
2024/01/12 01:57:46;;;;;;;66.97;34.03;;;;;;;;;;5050657;28;20065;-50
2024/01/12 02:00:12;;;;;;;74.85;33.75;;;-0.40;99.90;;;;;;5050650;28;20056;-50
2024/01/12 02:02:39;;;;;;;66.03;33.85;;;;;;;;;;5031786;28;20048;-51
2024/01/12 02:05:10;;;;;;;69.70;33.70;;;-0.60;99.90;;;;;;5050759;28;20091;-50
2024/01/12 02:07:39;;;;;;;70.35;34.22;;;;;;;;;;5032300;28;20033;-50
2024/01/12 02:10:06;;;;;;;67.80;32.78;;;-0.70;99.90;;;;;;5050272;28;20372;-50
2024/01/12 02:12:35;;;;;;;72.75;35.40;;;;;;;;;;5031434;28;20133;-50
2024/01/12 02:15:01;;;;;;;68.82;30.25;;;-0.80;99.90;;;;;;5050387;28;20354;-50
2024/01/12 02:17:27;;;;;;;63.63;31.00;;;-0.70;99.90;;;;;;5050819;28;20033;-50
2024/01/12 02:20:00;;;;;;;52.10;28.23;;;-0.80;99.90;;;;;;5050814;28;20036;-50
2024/01/12 02:22:26;;;;;;;65.63;30.27;;;-0.80;99.90;;;;;;5048378;28;20090;-50
2024/01/12 02:24:52;;;;;;;60.40;27.35;;;-0.60;99.90;;;;;;5050416;28;20078;-50
2024/01/12 02:27:19;;;;;;;62.97;31.33;;;;;;;;;;5050639;28;20018;-50
2024/01/12 02:29:46;;;;;;;39.15;15.32;;;;;;;;;;5050335;28;20029;-50
2024/01/12 02:32:12;;;;;;;62.97;29.65;;;-0.60;99.90;;;;;;5050708;28;20103;-50
2024/01/12 02:34:38;;;;;;;63.95;30.35;;;;;;;;;;5050859;28;20163;-50
2024/01/12 02:37:04;;;;;;;65.95;30.58;;;-0.50;99.90;;;;;;5050468;28;20554;-50
2024/01/12 02:39:29;;;;;;;61.08;29.23;;;-0.40;99.90;;;;;;5031697;28;20116;-50
2024/01/12 02:41:57;;;;;;;62.13;30.90;;;-0.50;99.90;;;;;;5027546;28;20041;-50
2024/01/12 02:44:26;;;;;;;60.55;27.95;;;-0.50;99.90;;;;;;5027844;28;20107;-50
2024/01/12 02:46:51;;;;;;;61.45;29.38;;;-0.60;99.90;;;;;;5027538;28;20038;-50
2024/01/12 02:49:17;;;;;;;43.40;21.38;;;-0.60;99.90;;;;;;5027795;28;20033;-50
2024/01/12 02:51:43;;;;;;;56.65;28.67;;;-0.70;99.90;;;;;;5027736;28;20038;-50
2024/01/12 02:54:09;;;;;;;63.15;30.00;;;-0.50;99.90;;;;;;5027651;28;20691;-52
2024/01/12 02:56:35;;;;;;;56.50;26.75;;;-0.50;99.90;;;;;;5030310;28;20049;-50
2024/01/12 02:59:01;;;;;;;59.28;29.98;;;-0.40;99.90;;;;;;5031155;28;20149;-50
2024/01/12 03:01:27;;;;;;;59.33;27.98;;;-0.40;99.90;;;;;;5031460;28;20038;-50
2024/01/12 03:03:53;;;;;;;58.15;27.77;;;-0.40;99.90;;;;;;5031138;28;20081;-51
2024/01/12 03:06:19;;;;;;;56.75;28.95;;;-0.30;99.90;;;;;;5031390;28;20490;-49
2024/01/12 03:08:45;;;;;;;52.15;24.83;;;-0.20;99.90;;;;;;5031144;28;20043;-51
2024/01/12 03:11:11;;;;;;;56.53;28.38;;;-0.30;99.90;;;;;;5031215;28;20477;-49
2024/01/12 03:13:37;;;;;;;65.35;28.98;;;-0.20;99.90;;;;;;5047152;28;20041;-50
2024/01/12 03:16:06;;;;;;;53.35;27.05;;;-0.10;99.90;;;;;;5034636;28;20051;-50
2024/01/12 03:18:32;;;;;;;47.70;25.85;;;0.00;99.90;;;;;;5035105;28;20158;-50
2024/01/12 03:20:58;;;;;;;37.08;17.52;;;0.00;99.90;;;;;;5053423;28;20083;-50
2024/01/12 03:23:24;;;;;;;48.17;25.15;;;0.00;99.90;;;;;;5068120;28;20040;-50
2024/01/12 03:25:50;;;;;;;57.25;27.38;;;0.10;99.90;;;;;;5053973;28;20099;-50
2024/01/12 03:28:16;;;;;;;46.90;24.75;;;0.10;99.90;;;;;;5053494;28;20472;-50
2024/01/12 03:30:42;;;;;;;47.63;23.50;;;0.00;99.90;;;;;;5053389;28;20447;-50
2024/01/12 03:33:08;;;;;;;41.22;21.00;;;0.00;99.90;;;;;;5053617;28;20473;-50
2024/01/12 03:35:35;;;;;;;40.97;21.00;;;0.10;99.90;;;;;;5053384;28;20036;-50
2024/01/12 03:38:01;;;;;;;36.38;18.73;;;0.20;99.90;;;;;;5053293;28;20029;-50
2024/01/12 03:40:28;;;;;;;31.92;17.60;;;0.10;99.90;;;;;;5053740;28;20033;-50
2024/01/12 03:42:53;;;;;;;25.33;14.15;;;0.10;99.90;;;;;;5053152;28;20029;-49
2024/01/12 03:45:19;;;;;;;28.95;13.95;;;0.00;99.90;;;;;;5053142;28;20434;-50
2024/01/12 03:47:45;;;;;;;24.45;11.95;;;;;;;;;;5053016;28;20036;-50
2024/01/12 03:50:11;;;;;;;36.75;17.88;;;;;;;;;;5053397;28;20069;-50
2024/01/12 03:52:37;;;;;;;26.42;13.65;;;;;;;;;;5053024;28;20033;-51
2024/01/12 03:55:04;;;;;;;34.65;17.73;;;;;;;;;;5053049;28;20162;-50
2024/01/12 03:57:30;;;;;;;37.55;18.40;;;;;;;;;;5053027;28;20040;-50
2024/01/12 03:59:55;;;;;;;33.50;18.73;;;0.20;99.90;;;;;;5052939;28;20075;-50
2024/01/12 04:02:21;;;;;;;32.20;16.45;;;;;;;;;;5052888;28;20476;-51
2024/01/12 04:04:48;;;;;;;33.20;17.98;;;;;;;;;;5052865;28;20056;-50
2024/01/12 04:07:13;;;;;;;35.85;19.55;;;0.00;99.90;;;;;;5052125;28;20039;-50
2024/01/12 04:09:41;;;;;;;34.55;19.13;;;0.00;99.90;;;;;;5052983;28;20111;-51
2024/01/12 04:12:07;;;;;;;24.27;13.30;;;0.10;99.90;;;;;;5034064;28;20036;-50
2024/01/12 04:14:33;;;;;;;36.78;19.00;;;0.00;99.90;;;;;;5052482;28;20032;-50
2024/01/12 04:16:58;;;;;;;26.83;14.55;;;-0.10;99.90;;;;;;5033489;28;20048;-49
2024/01/12 04:19:24;;;;;;;33.85;17.98;;;-0.30;99.90;;;;;;5052502;28;20028;-50
2024/01/12 04:21:50;;;;;;;36.75;18.00;;;-0.20;99.90;;;;;;5052697;28;20104;-50
2024/01/12 04:24:16;;;;;;;30.35;17.77;;;-0.10;99.90;;;;;;5033576;28;20033;-50
2024/01/12 04:26:42;;;;;;;34.40;19.63;;;0.00;99.90;;;;;;5033867;28;20029;-50
2024/01/12 04:29:08;;;;;;;35.42;18.83;;;0.10;99.90;;;;;;5053367;28;20035;-50
2024/01/12 04:31:39;;;;;;;35.95;19.90;;;0.00;99.90;;;;;;5053755;28;20080;-49
2024/01/12 04:34:05;;;;;;;32.60;18.17;;;0.10;99.90;;;;;;5053293;28;20063;-50
2024/01/12 04:36:31;;;;;;;33.85;16.08;;;0.20;99.90;;;;;;5053354;28;20036;-50
2024/01/12 04:38:57;;;;;;;37.53;19.23;;;0.00;99.90;;;;;;5052510;28;20074;-50
2024/01/12 04:41:23;;;;;;;32.85;19.50;;;0.10;99.90;;;;;;5052452;28;20477;-50
2024/01/12 04:43:48;;;;;;;26.48;13.98;;;0.10;99.90;;;;;;5052085;28;20120;-50
2024/01/12 04:46:14;;;;;;;36.00;19.95;;;-0.10;99.90;;;;;;5052110;28;20033;-50
2024/01/12 04:48:40;;;;;;;33.78;17.92;;;0.00;99.90;;;;;;5052326;28;20155;-49
2024/01/12 04:51:06;;;;;;;25.65;14.88;;;-0.10;99.90;;;;;;5032991;28;20554;-50
2024/01/12 04:53:31;;;;;;;34.47;19.13;;;-0.10;99.90;;;;;;5051798;28;20048;-50
2024/01/12 04:55:57;;;;;;;34.88;20.38;;;-0.20;99.90;;;;;;5051762;28;20041;-50
2024/01/12 04:58:23;;;;;;;28.65;16.67;;;-0.20;99.90;;;;;;5051582;28;20040;-49
2024/01/12 05:00:49;;;;;;;33.35;19.40;;;-0.10;99.90;;;;;;5032781;28;20135;-50
2024/01/12 05:03:14;;;;;;;24.80;12.48;;;-0.20;99.90;;;;;;5032824;28;20107;-50
2024/01/12 05:05:40;;;;;;;32.13;18.02;;;-0.30;99.90;;;;;;5051192;28;20631;-49
2024/01/12 05:08:06;;;;;;;27.58;14.15;;;-0.30;99.90;;;;;;5051614;28;20025;-50
2024/01/12 05:10:31;;;;;;;36.22;19.80;;;-0.40;99.90;;;;;;5032053;28;20025;-51
2024/01/12 05:12:57;;;;;;;39.25;20.20;;;-0.40;99.90;;;;;;5032617;28;20128;-50
2024/01/12 05:15:23;;;;;;;36.30;20.58;;;-0.30;99.90;;;;;;5051345;28;20108;-50
2024/01/12 05:17:48;;;;;;;36.85;21.15;;;-0.20;99.90;;;;;;4979791;28;20041;-50
2024/01/12 05:20:14;;;;;;;38.28;19.77;;;-0.30;99.90;;;;;;5050250;28;20033;-50
2024/01/12 05:22:40;;;;;;;35.88;20.02;;;-0.20;99.90;;;;;;5045908;28;20029;-50
2024/01/12 05:25:06;;;;;;;38.15;21.75;;;-0.20;99.90;;;;;;5048579;28;20497;-50
2024/01/12 05:27:32;;;;;;;37.05;19.50;;;-0.10;99.90;;;;;;5050825;28;20086;-50
2024/01/12 05:29:58;;;;;;;21.67;11.20;;;-0.10;99.90;;;;;;5050909;28;20025;-50
2024/01/12 05:32:24;;;;;;;35.50;21.08;;;-0.20;99.90;;;;;;5051103;28;20033;-50
2024/01/12 05:34:50;;;;;;;35.28;19.35;;;-0.10;99.90;;;;;;5050406;28;20031;-50
2024/01/12 05:37:15;;;;;;;32.05;18.10;;;-0.10;99.90;;;;;;5051173;28;20044;-49
2024/01/12 05:39:41;;;;;;;30.63;16.58;;;-0.10;99.90;;;;;;5051069;28;20037;-50
2024/01/12 05:42:07;;;;;;;34.45;18.67;;;0.00;99.90;;;;;;5050969;28;20784;-50
2024/01/12 05:44:33;;;;;;;33.88;18.52;;;0.00;99.90;;;;;;5051207;28;20108;-50
2024/01/12 05:46:59;;;;;;;30.42;18.38;;;-0.20;99.90;;;;;;5051165;28;20068;-50
2024/01/12 05:49:25;;;;;;;30.75;16.77;;;;;;;;;;5051231;28;20452;-50
2024/01/12 05:51:51;;;;;;;29.90;17.55;;;-0.20;99.90;;;;;;5050760;28;20099;-52
2024/01/12 05:54:16;;;;;;;27.92;15.45;;;0.00;99.90;;;;;;5049267;28;20148;-50
2024/01/12 05:56:43;;;;;;;28.05;16.17;;;0.10;99.90;;;;;;5049933;28;20104;-50
2024/01/12 05:59:08;;;;;;;28.75;17.13;;;0.00;99.90;;;;;;5030746;28;20128;-50
2024/01/12 06:01:34;;;;;;;27.13;15.27;;;0.10;99.90;;;;;;5049478;28;20124;-49
2024/01/12 06:04:00;;;;;;;15.68;7.88;;;0.10;99.90;;;;;;5048208;28;20075;-50
2024/01/12 06:06:26;;;;;;;25.15;13.88;;;0.10;99.90;;;;;;5036342;28;20404;-50
2024/01/12 06:08:51;;;;;;;29.80;18.10;;;0.00;99.90;;;;;;5030688;28;20445;-50
2024/01/12 06:11:17;;;;;;;28.58;17.17;;;0.10;99.90;;;;;;5046981;28;20036;-49
2024/01/12 06:13:43;;;;;;;26.30;14.90;;;;;;;;;;5049925;28;20120;-50
2024/01/12 06:16:09;;;;;;;26.98;14.45;;;;;;;;;;5049990;28;20033;-50
2024/01/12 06:18:35;;;;;;;24.70;14.65;;;;;;;;;;5040860;28;20069;-51
2024/01/12 06:21:01;;;;;;;32.65;17.45;;;;;;;;;;5049253;28;20029;-49
2024/01/12 06:23:27;;;;;;;25.48;12.88;;;0.10;99.90;;;;;;5030994;28;20098;-49
2024/01/12 06:25:53;;;;;;;30.50;16.70;;;;;;;;;;5049476;28;20461;-50
2024/01/12 06:28:19;;;;;;;21.40;14.63;;;0.20;99.90;;;;;;5030704;28;20033;-50
2024/01/12 06:30:45;;;;;;;24.05;14.15;;;0.10;99.90;;;;;;5052079;28;20037;-50
2024/01/12 06:33:15;;;;;;;24.42;14.38;;;0.20;99.90;;;;;;5052606;28;20060;-49
2024/01/12 06:35:41;;;;;;;29.90;16.98;;;0.30;99.90;;;;;;5054486;28;20070;-50
2024/01/12 06:38:07;;;;;;;28.48;17.05;;;0.40;99.90;;;;;;5054507;28;20469;-50
2024/01/12 06:40:32;;;;;;;27.63;17.05;;;0.40;99.90;;;;;;5054574;28;20029;-50
2024/01/12 06:42:58;;;;;;;31.45;18.38;;;0.40;99.90;;;;;;5053876;28;20544;-49
2024/01/12 06:45:24;;;;;;;28.88;15.57;;;0.50;99.90;;;;;;5034993;28;20266;-50
2024/01/12 06:47:50;;;;;;;31.15;18.17;;;0.50;99.90;;;;;;5053510;28;20346;-50
2024/01/12 06:50:16;;;;;;;30.67;17.75;;;0.70;99.90;;;;;;5054017;28;20084;-50
2024/01/12 06:52:42;;;;;;;35.78;21.45;;;;;;;;;;5053633;28;20405;-50
2024/01/12 06:55:08;;;;;;;33.72;20.52;;;0.70;99.90;;;;;;5053177;28;20036;-50
2024/01/12 06:57:33;;;;;;;45.65;20.67;;;0.60;99.90;;;;;;5031922;28;20392;-49
2024/01/12 06:59:59;;;;;;;78.53;32.95;;;0.30;99.90;;;;;;5033855;28;20045;-50
2024/01/12 07:02:25;;;;;;;42.80;22.83;;;0.40;99.90;;;;;;5035804;28;20422;-51
2024/01/12 07:04:51;;;;;;;39.45;18.30;;;0.50;99.90;;;;;;5054171;28;20104;-50
2024/01/12 07:07:16;;;;;;;152.93;51.47;;;0.50;99.90;;;;;;5034880;28;20040;-50
2024/01/12 07:09:42;;;;;;;31.13;17.25;;;;;;;;;;5053845;28;20021;-50
2024/01/12 07:12:09;;;;;;;87.80;37.58;;;0.60;99.90;;;;;;5053935;28;20492;-50
2024/01/12 07:14:35;;;;;;;39.55;21.60;;;0.60;99.90;;;;;;5052042;28;20041;-50
2024/01/12 07:17:00;;;;;;;28.27;14.75;;;0.60;99.90;;;;;;5053684;28;20106;-50
2024/01/12 07:19:26;;;;;;;74.97;29.80;;;0.60;99.90;;;;;;5025816;28;20041;-51
2024/01/12 07:21:52;;;;;;;66.25;32.85;;;0.50;99.90;;;;;;5037636;28;20108;-50
2024/01/12 07:24:17;;;;;;;63.15;28.60;;;0.60;99.90;;;;;;5047389;28;20045;-50
2024/01/12 07:26:43;;;;;;;34.03;19.70;;;;;;;;;;5030569;28;20068;-50
2024/01/12 07:29:09;;;;;;;75.65;28.33;;;0.60;99.90;;;;;;5024486;28;20041;-50
2024/01/12 07:31:36;;;;;;;31.45;18.83;;;0.70;99.90;;;;;;5039823;28;20435;-51
2024/01/12 07:34:04;;;;;;;49.33;24.70;;;0.80;99.90;;;;;;5045095;28;20033;-51
2024/01/12 07:36:30;;;;;;;30.77;17.33;;;0.70;99.90;;;;;;5042297;28;20729;-51
2024/01/12 07:38:57;;;;;;;34.63;18.58;;;0.70;99.90;;;;;;5046605;28;20032;-50
2024/01/12 07:41:23;;;;;;;33.35;18.30;;;0.80;99.90;;;;;;5026109;28;20437;-50
2024/01/12 07:43:48;;;;;;;30.15;17.52;;;0.90;99.90;;;;;;5044191;28;20063;-49
2024/01/12 07:46:18;;;;;;;63.10;31.50;;;0.90;99.90;;;;;;5042293;28;20039;-49
2024/01/12 07:48:44;;;;;;;36.33;20.83;;;1.00;99.90;;;;;;5040856;28;20037;-50
2024/01/12 07:51:10;;;;;;;37.95;19.15;;;1.10;99.90;;;;;;5041590;28;20049;-50
2024/01/12 07:53:35;;;;;;;89.80;37.05;;;1.00;99.90;;;;;;5026112;28;20041;-50
2024/01/12 07:56:01;;;;;;;25.05;13.32;;;1.10;99.90;;;;;;5047090;28;20061;-50
2024/01/12 07:58:27;;;;;;;32.92;19.45;;;0.90;99.90;;;;;;5039872;28;20125;-48
2024/01/12 08:00:52;;;;;;;34.92;18.23;;;1.00;99.90;;;;;;5045368;28;20069;-50
2024/01/12 08:03:18;;;;;;;34.22;18.55;;;0.90;99.90;;;;;;5050117;28;20032;-51
2024/01/12 08:05:44;;;;;;;29.02;18.17;;;1.10;99.90;;;;;;5028178;28;20566;-50
2024/01/12 08:08:10;;;;;;;33.42;20.00;;;1.20;99.90;;;;;;5040434;28;20030;-49
2024/01/12 08:10:36;;;;;;;28.23;16.05;;;;;;;;;;5049707;28;20079;-50
2024/01/12 08:13:04;;;;;;;31.38;18.50;;;;;;;;;;5044728;28;20029;-51
2024/01/12 08:15:29;;;;;;;31.60;18.38;;;1.50;99.90;;;;;;5048038;28;20094;-48
2024/01/12 08:17:55;;;;;;;27.55;17.73;;;1.40;99.90;;;;;;5045260;28;20032;-49
2024/01/12 08:20:21;;;;;;;33.55;19.27;;;1.50;99.90;;;;;;5042066;28;20028;-49
2024/01/12 08:22:46;;;;;;;34.08;19.67;;;1.50;99.90;;;;;;5044530;28;20035;-49
2024/01/12 08:25:12;;;;;;;25.52;15.07;;;1.60;99.90;;;;;;5040997;28;20029;-51
2024/01/12 08:27:38;;;;;;;38.95;22.45;;;1.60;99.90;;;;;;5046520;28;20029;-48
2024/01/12 08:30:07;;;;;;;32.20;16.65;;;1.70;99.90;;;;;;5041156;28;20063;-48
2024/01/12 08:32:33;;;;;;;34.10;19.23;;;1.70;99.90;;;;;;5042420;28;20146;-49
2024/01/12 08:34:59;;;;;;;32.45;17.38;;;1.60;99.90;;;;;;5044546;28;20492;-51
2024/01/12 08:37:25;;;;;;;32.95;19.25;;;;;;;;;;5043043;28;20107;-49
2024/01/12 08:39:51;;;;;;;31.38;17.88;;;;;;;;;;5041050;28;20045;-51
2024/01/12 08:42:17;;;;;;;16.35;10.82;;;1.80;99.90;;;;;;5040864;28;20037;-51
2024/01/12 08:44:43;;;;;;;29.83;17.00;;;1.60;99.90;;;;;;5041224;28;20354;-51
2024/01/12 08:47:08;;;;;;;29.63;17.80;;;1.70;99.90;;;;;;5039946;28;20421;-51
2024/01/12 08:49:34;;;;;;;64.55;30.45;;;1.80;99.90;;;;;;5043868;28;20017;-49
2024/01/12 08:52:00;;;;;;;40.05;16.52;;;1.60;99.90;;;;;;5041392;28;20033;-50
2024/01/12 08:54:25;;;;;;;48.78;22.42;;;1.50;99.90;;;;;;5043357;28;20033;-50
2024/01/12 08:56:51;;;;;;;37.33;19.92;;;1.70;99.90;;;;;;5043729;28;20072;-50
2024/01/12 08:59:17;;;;;;;204.90;56.38;;;1.80;99.90;;;;;;5044042;28;20053;-50
2024/01/12 09:01:43;;;;;;;51.55;22.77;;;1.80;99.90;;;;;;5036949;28;20033;-49
2024/01/12 09:04:09;;;;;;;106.20;35.15;;;;;;;;;;5026969;28;20091;-50
2024/01/12 09:06:34;;;;;;;110.10;39.13;;;2.00;99.90;;;;;;5036868;28;20051;-50
2024/01/12 09:09:00;;;;;;;62.85;26.40;;;2.10;99.90;;;;;;5056362;28;20045;-51
2024/01/12 09:11:27;;;;;;;66.53;29.60;;;2.10;99.90;;;;;;5006658;28;20061;-50
2024/01/12 09:13:53;;;;;;;32.38;20.83;;;;;;;;;;5027713;28;20040;-51
2024/01/12 09:16:19;;;;;;;28.85;17.17;;;2.30;99.90;;;;;;5040359;28;20068;-50
2024/01/12 09:18:45;;;;;;;44.10;22.10;;;2.40;99.90;;;;;;5041257;28;20025;-51
2024/01/12 09:21:14;;;;;;;34.38;17.38;;;2.40;99.90;;;;;;5045900;28;20032;-49
2024/01/12 09:23:42;;;;;;;72.82;28.50;;;2.20;99.90;;;;;;5042604;28;20029;-50
2024/01/12 09:26:09;;;;;;;34.17;19.92;;;2.40;99.90;;;;;;5041413;28;20032;-49
2024/01/12 09:28:36;;;;;;;53.92;22.42;;;2.50;99.90;;;;;;5043989;28;20045;-51
2024/01/12 09:31:02;;;;;;;46.78;24.67;;;2.50;99.90;;;;;;5045898;28;20136;-50
2024/01/12 09:33:28;;;;;;;74.60;32.60;;;2.60;99.90;;;;;;5047402;28;20037;-50
2024/01/12 09:35:54;;;;;;;78.95;32.28;;;2.30;99.90;;;;;;5022895;28;20037;-51
2024/01/12 09:38:19;;;;;;;70.40;32.92;;;2.40;99.90;;;;;;5040849;28;20033;-53
2024/01/12 09:40:46;;;;;;;56.80;29.38;;;2.50;99.90;;;;;;5040637;28;20029;-57
2024/01/12 09:43:14;;;;;;;38.42;19.88;;;;;;;;;;5040278;28;20033;-49
2024/01/12 09:45:44;;;;;;;34.55;21.95;;;;;;;;;;5044139;28;20032;-53
2024/01/12 09:48:10;;;;;;;47.70;28.08;;;;;;;;;;5034526;28;20065;-49
2024/01/12 09:50:36;;;;;;;33.42;21.58;;;2.20;99.90;;;;;;5037228;28;20476;-51
2024/01/12 09:53:02;;;;;;;26.27;16.42;;;2.80;99.90;;;;;;5041710;28;20064;-49
2024/01/12 09:55:27;;;;;;;37.78;22.73;;;2.70;99.90;;;;;;5037010;28;20069;-50
2024/01/12 09:57:54;;;;;;;40.22;25.02;;;2.90;99.90;;;;;;5023801;28;20056;-51
2024/01/12 10:00:23;;;;;;;39.22;19.67;;;;;;;;;;5040488;28;20061;-50
2024/01/12 10:02:49;;;;;;;32.42;18.67;;;2.90;99.90;;;;;;5037020;28;20056;-51
2024/01/12 10:05:14;;;;;;;33.55;22.10;;;3.00;99.90;;;;;;5008484;28;20481;-50
2024/01/12 10:07:40;;;;;;;30.60;20.92;;;2.90;99.90;;;;;;5040828;28;20112;-51
2024/01/12 10:10:07;;;;;;;31.80;20.83;;;;;;;;;;5036809;28;20033;-50
2024/01/12 10:12:33;;;;;;;32.97;18.80;;;;;;;;;;5039439;28;20029;-50
2024/01/12 10:15:01;;;;;;;29.70;19.75;;;3.40;99.90;;;;;;5039803;28;20036;-49
2024/01/12 10:17:27;;;;;;;29.88;17.50;;;3.50;99.90;;;;;;5041296;28;20626;-50
2024/01/12 10:19:53;;;;;;;27.23;17.67;;;3.50;99.90;;;;;;5039480;28;20045;-50
2024/01/12 10:22:19;;;;;;;31.83;19.48;;;3.50;99.90;;;;;;5042345;28;20040;-50
2024/01/12 10:24:45;;;;;;;33.95;20.90;;;3.60;99.90;;;;;;5036969;28;20028;-50
2024/01/12 10:27:13;;;;;;;56.97;28.45;;;3.60;99.90;;;;;;5033669;28;20167;-50
2024/01/12 10:29:39;;;;;;;30.50;19.45;;;3.40;99.90;;;;;;5039592;28;20057;-52
2024/01/12 10:32:06;;;;;;;36.90;22.42;;;;;;;;;;5038821;28;20089;-49
2024/01/12 10:34:36;;;;;;;28.98;18.70;;;4.40;99.90;;;;;;5044148;28;20033;-49
2024/01/12 10:37:05;;;;;;;64.07;31.50;;;3.40;99.90;;;;;;5042314;28;20503;-51
2024/01/12 10:39:35;;;;;;;35.63;21.23;;;3.20;99.90;;;;;;5041520;28;20036;-50
2024/01/12 10:42:05;;;;;;;124.05;46.83;;;3.20;99.90;;;;;;5044048;28;20044;-50
2024/01/12 10:44:34;;;;;;;45.25;23.55;;;3.30;99.90;;;;;;5042821;28;20127;-49
2024/01/12 10:47:05;;;;;;;49.42;25.85;;;;;;;;;;5041229;28;20031;-52
2024/01/12 10:49:47;;;;;;;90.93;35.30;;;3.10;99.90;;;;;;5042774;28;20785;-50
2024/01/12 10:52:18;;;;;;;34.08;20.55;;;3.20;99.90;;;;;;5040257;28;20037;-51
2024/01/12 10:54:51;;;;;;;37.03;21.33;;;3.30;99.90;;;;;;5037254;28;20059;-51
2024/01/12 10:57:18;;;;;;;69.63;24.13;;;3.20;99.90;;;;;;5036081;28;20052;-50
2024/01/12 10:59:44;;;;;;;30.90;19.67;;;2.90;99.90;;;;;;5039976;28;20049;-50
2024/01/12 11:02:13;;;;;;;31.88;15.75;;;2.90;99.90;;;;;;4996637;28;20120;-50
2024/01/12 11:04:40;;;;;;;34.50;21.15;;;2.80;99.90;;;;;;5041390;28;20048;-50
2024/01/12 11:07:06;;;;;;;42.35;21.80;;;2.80;99.90;;;;;;5041710;28;20124;-51
2024/01/12 11:09:32;;;;;;;35.78;22.48;;;2.80;99.90;;;;;;5036057;28;20043;-50
2024/01/12 11:12:07;;;;;;;31.02;19.35;;;2.90;99.90;;;;;;5032805;28;20030;-50
2024/01/12 11:14:34;;;;;;;64.35;27.50;;;2.90;99.90;;;;;;5027564;28;20052;-51
2024/01/12 11:16:59;;;;;;;77.80;31.85;;;3.10;99.90;;;;;;5040041;28;20128;-50
2024/01/12 11:19:27;;;;;;;36.88;22.95;;;2.80;99.90;;;;;;5044283;28;20127;-49
2024/01/12 11:22:10;;;;;;;38.90;22.02;;;2.90;99.90;;;;;;5044609;28;20082;-49
2024/01/12 11:24:37;;;;;;;52.28;25.05;;;2.80;99.90;;;;;;5047082;28;20037;-50
2024/01/12 11:27:04;;;;;;;48.80;22.45;;;2.80;99.90;;;;;;5042270;28;20401;-50
2024/01/12 11:29:34;;;;;;;34.38;18.33;;;2.70;99.90;;;;;;5041485;28;20041;-50
2024/01/12 11:32:03;;;;;;;35.97;20.42;;;;;;;;;;5032907;28;20079;-52
2024/01/12 11:34:38;;;;;;;29.80;14.52;;;;;;;;;;5045589;28;20037;-51
2024/01/12 11:37:08;;;;;;;46.35;25.50;;;2.10;99.90;;;;;;5047865;28;20041;-51
2024/01/12 11:39:37;;;;;;;42.03;24.42;;;;;;;;;;5045976;28;20078;-49
2024/01/12 11:42:05;;;;;;;32.88;21.25;;;;;;;;;;5044673;28;20036;-50
2024/01/12 11:44:33;;;;;;;34.58;21.27;;;2.60;99.90;;;;;;5046655;28;20040;-51
2024/01/12 11:47:01;;;;;;;34.90;21.55;;;2.60;99.90;;;;;;5037686;28;20037;-53
2024/01/12 11:49:26;;;;;;;40.15;24.35;;;2.80;99.90;;;;;;5050943;28;20033;-51
2024/01/12 11:52:07;;;;;;;44.10;24.88;;;2.70;99.90;;;;;;5049522;28;20029;-52
2024/01/12 11:54:33;;;;;;;39.30;24.00;;;;;;;;;;5044743;28;20131;-52
2024/01/12 11:57:01;;;;;;;36.65;23.73;;;3.00;99.90;;;;;;5038449;28;20672;-51
2024/01/12 11:59:27;;;;;;;35.28;21.73;;;;;;;;;;5041656;28;20064;-51
2024/01/12 12:01:53;;;;;;;37.08;24.20;;;3.30;99.90;;;;;;5046093;28;20090;-51
2024/01/12 12:04:19;;;;;;;33.15;22.52;;;3.30;99.90;;;;;;5041937;28;20029;-50
2024/01/12 12:06:48;;;;;;;34.15;21.27;;;;;;;;;;5045023;28;20029;-51
2024/01/12 12:09:14;;;;;;;37.05;24.00;;;;;;;;;;5045967;28;20148;-52
2024/01/12 12:11:40;;;;;;;32.17;21.50;;;3.70;99.90;;;;;;5038503;28;20021;-51
2024/01/12 12:14:06;;;;;;;35.97;23.30;;;3.60;99.90;;;;;;5042636;28;20029;-51
2024/01/12 12:16:33;;;;;;;38.58;22.40;;;3.60;99.90;;;;;;5047305;28;20120;-51
2024/01/12 12:18:59;;;;;;;31.80;21.55;;;3.50;99.90;;;;;;5031468;28;20140;-51
2024/01/12 12:21:24;;;;;;;40.00;23.00;;;3.40;99.90;;;;;;5038985;28;20481;-51
2024/01/12 12:23:51;;;;;;;35.13;23.45;;;3.40;99.90;;;;;;5041166;28;20497;-51
2024/01/12 12:26:17;;;;;;;33.47;20.80;;;3.40;99.90;;;;;;5023907;28;20045;-51
2024/01/12 12:28:46;;;;;;;32.85;22.13;;;3.40;99.90;;;;;;5047058;28;20048;-51
2024/01/12 12:31:11;;;;;;;33.13;20.65;;;3.40;99.90;;;;;;5042099;28;20095;-51
2024/01/12 12:33:42;;;;;;;40.95;23.45;;;3.30;99.90;;;;;;5024892;28;20484;-52
2024/01/12 12:36:09;;;;;;;40.20;24.98;;;3.50;99.90;;;;;;5039215;28;20038;-51
2024/01/12 12:38:39;;;;;;;46.22;27.88;;;3.50;99.90;;;;;;5041654;28;20033;-50
2024/01/12 12:41:08;;;;;;;39.75;25.80;;;3.50;99.90;;;;;;5047754;28;20024;-50
2024/01/12 12:43:35;;;;;;;42.72;25.23;;;;;;;;;;5047176;28;20037;-50
2024/01/12 12:46:02;;;;;;;47.13;23.63;;;;;;;;;;5046521;28;20024;-51